Time;durP1;ratioP1;P1;durP2;ratioP2;P2;SDS_P1;SDS_P2;PMS_P1;PMS_P2;Temp;Humidity;BMP_temperature;BMP_pressure;BME280_temperature;BME280_humidity;BME280_pressure;Samples;Min_cycle;Max_cycle;Signal;HPM_P1;HPM_P2
2024/03/20 00:03:20;;;;;;;23.83;11.70;;;;;8.50;101371.00;;;;9965608;29;20324;-82
2024/03/20 00:08:21;;;;;;;15.80;10.67;;;;;8.50;101377.00;;;;9967553;29;20826;-82
2024/03/20 00:13:23;;;;;;;19.17;12.40;;;;;8.40;101367.00;;;;9958834;29;20316;-82
2024/03/20 00:18:25;;;;;;;20.37;12.77;;;;;8.40;101370.00;;;;9949965;29;20229;-80
2024/03/20 00:23:26;;;;;;;23.90;13.03;;;;;8.40;101377.00;;;;9970112;29;20233;-77
2024/03/20 00:28:27;;;;;;;19.73;10.07;;;;;8.30;101387.00;;;;9965811;29;20244;-79
2024/03/20 00:33:28;;;;;;;22.93;11.40;;;;;8.20;101386.00;;;;9948715;29;20748;-81
2024/03/20 00:38:29;;;;;;;21.40;12.30;;;;;8.20;101369.00;;;;9962877;29;20225;-79
2024/03/20 00:43:31;;;;;;;17.70;13.37;;;;;8.10;101385.00;;;;9941566;29;20630;-77
2024/03/20 00:48:32;;;;;;;17.00;11.23;;;;;8.10;101371.00;;;;9978646;29;20307;-79
2024/03/20 00:53:33;;;;;;;20.40;11.37;;;;;8.10;101376.00;;;;9969390;29;20253;-78
2024/03/20 00:58:34;;;;;;;25.80;11.87;;;;;8.10;101369.00;;;;9980193;29;20225;-79
2024/03/20 01:03:35;;;;;;;26.07;12.27;;;;;8.00;101364.00;;;;9957170;29;20296;-79
2024/03/20 01:08:40;;;;;;;24.53;11.87;;;;;8.00;101362.00;;;;9943155;29;20229;-77
2024/03/20 01:13:41;;;;;;;22.00;11.67;;;;;8.00;101359.00;;;;9950539;29;20233;-78
2024/03/20 01:18:42;;;;;;;17.73;11.67;;;;;7.90;101342.00;;;;9985824;29;20738;-77
2024/03/20 01:23:43;;;;;;;21.37;11.77;;;;;7.90;101347.00;;;;9961767;29;20233;-77
2024/03/20 01:28:44;;;;;;;24.17;12.33;;;;;7.80;101339.00;;;;9992750;29;20227;-79
2024/03/20 01:33:45;;;;;;;22.37;12.53;;;;;7.80;101325.00;;;;9983448;29;20616;-80
2024/03/20 01:38:47;;;;;;;26.90;13.70;;;;;7.80;101318.00;;;;9934357;29;20265;-80
2024/03/20 01:43:56;;;;;;;22.70;13.63;;;;;7.80;101315.00;;;;9979293;29;20304;-81
2024/03/20 01:48:58;;;;;;;28.87;13.23;;;;;7.80;101307.00;;;;9990328;29;20761;-81
2024/03/20 01:54:01;;;;;;;21.10;13.17;;;;;7.80;101302.00;;;;9975368;29;20249;-81
2024/03/20 01:59:03;;;;;;;25.07;13.80;;;;;7.90;101292.00;;;;9979227;29;20286;-80
2024/03/20 02:04:05;;;;;;;28.33;13.77;;;;;8.00;101282.00;;;;9984301;29;20239;-80
2024/03/20 02:09:07;;;;;;;24.17;12.87;;;;;8.00;101287.00;;;;9969254;29;20257;-81
2024/03/20 02:14:08;;;;;;;21.77;13.77;;;;;7.90;101283.00;;;;9985211;29;20240;-80
2024/03/20 02:19:10;;;;;;;18.70;11.53;;;;;7.70;101276.00;;;;9958123;29;20319;-80
2024/03/20 02:24:11;;;;;;;17.90;12.03;;;;;7.70;101284.00;;;;9961054;29;20313;-80
2024/03/20 02:29:12;;;;;;;19.23;12.03;;;;;7.60;101283.00;;;;9972914;29;20241;-80
2024/03/20 02:34:13;;;;;;;21.43;12.90;;;;;7.50;101276.00;;;;9953253;29;20267;-80
2024/03/20 02:39:14;;;;;;;19.97;12.23;;;;;7.50;101282.00;;;;9977156;29;20748;-81
2024/03/20 02:44:15;;;;;;;19.50;13.40;;;;;7.40;101288.00;;;;9940029;29;20345;-81
2024/03/20 02:49:16;;;;;;;23.60;12.53;;;;;7.40;101277.00;;;;9970269;29;20232;-81
2024/03/20 02:54:17;;;;;;;22.83;12.33;;;;;7.30;101276.00;;;;9945216;29;20323;-81
2024/03/20 02:59:19;;;;;;;20.80;12.57;;;;;7.30;101283.00;;;;9969492;29;20308;-81
2024/03/20 03:04:20;;;;;;;17.53;12.10;;;;;7.30;101281.00;;;;9951470;29;20328;-81
2024/03/20 03:09:21;;;;;;;16.70;10.40;;;;;7.20;101277.00;;;;9966120;29;20257;-81
2024/03/20 03:14:22;;;;;;;20.83;11.67;;;;;7.20;101275.00;;;;9943613;29;20341;-81
2024/03/20 03:19:23;;;;;;;22.67;11.83;;;;;7.20;101276.00;;;;9964765;29;20634;-81
2024/03/20 03:24:24;;;;;;;18.50;9.97;;;;;7.10;101279.00;;;;9958682;29;20316;-81
2024/03/20 03:29:26;;;;;;;15.67;10.60;;;;;7.10;101279.00;;;;9966160;29;20221;-80
2024/03/20 03:34:27;;;;;;;18.37;9.70;;;;;7.00;101273.00;;;;9955714;29;20595;-81
2024/03/20 03:39:28;;;;;;;17.03;9.87;;;;;6.90;101278.00;;;;9997509;29;20225;-81
2024/03/20 03:44:30;;;;;;;16.93;11.20;;;;;6.90;101272.00;;;;9974621;29;20226;-81
2024/03/20 03:49:32;;;;;;;16.23;10.63;;;;;6.80;101272.00;;;;9961724;29;20378;-81
2024/03/20 03:54:33;;;;;;;18.73;11.70;;;;;6.80;101273.00;;;;9962178;29;20268;-81
2024/03/20 03:59:34;;;;;;;17.93;10.17;;;;;6.80;101278.00;;;;9964949;29;20276;-81
2024/03/20 04:04:35;;;;;;;15.70;10.67;;;;;6.70;101277.00;;;;9942053;29;20381;-81
2024/03/20 04:09:37;;;;;;;21.13;11.50;;;;;6.70;101276.00;;;;9945565;29;20595;-83
2024/03/20 04:14:38;;;;;;;16.73;10.20;;;;;6.60;101276.00;;;;9951309;29;20687;-83
2024/03/20 04:19:39;;;;;;;18.77;11.43;;;;;6.60;101275.00;;;;9955868;29;20253;-84
2024/03/20 04:24:40;;;;;;;19.07;12.47;;;;;6.50;101278.00;;;;9964473;29;20257;-83
2024/03/20 04:29:41;;;;;;;18.43;11.77;;;;;6.50;101269.00;;;;9947232;29;20233;-84
2024/03/20 04:34:42;;;;;;;24.53;12.97;;;;;6.50;101277.00;;;;9958911;29;20320;-83
2024/03/20 04:39:43;;;;;;;23.27;13.67;;;;;6.50;101263.00;;;;9952083;29;20228;-83
2024/03/20 04:44:45;;;;;;;21.80;13.63;;;;;6.50;101267.00;;;;9982567;29;20316;-84
2024/03/20 04:49:46;;;;;;;27.50;15.40;;;;;6.50;101267.00;;;;9948967;29;20230;-84
2024/03/20 04:54:48;;;;;;;26.83;16.33;;;;;6.50;101267.00;;;;9978841;29;20266;-83
2024/03/20 04:59:49;;;;;;;23.87;15.13;;;;;6.50;101266.00;;;;9973447;29;20293;-83
2024/03/20 05:04:50;;;;;;;25.53;15.33;;;;;6.50;101272.00;;;;9988363;29;20295;-84
2024/03/20 05:09:51;;;;;;;25.77;16.23;;;;;6.50;101272.00;;;;9970133;29;20240;-83
2024/03/20 05:14:52;;;;;;;25.70;15.43;;;;;6.40;101267.00;;;;9947767;29;20653;-84
2024/03/20 05:19:53;;;;;;;30.67;17.87;;;;;6.40;101270.00;;;;9979233;29;20264;-82
2024/03/20 05:24:55;;;;;;;31.97;17.07;;;;;6.40;101275.00;;;;9941934;29;20921;-82
2024/03/20 05:29:56;;;;;;;28.57;18.10;;;;;6.40;101269.00;;;;9969206;29;20641;-82
2024/03/20 05:34:57;;;;;;;29.87;18.73;;;;;6.40;101265.00;;;;9965338;29;20313;-82
2024/03/20 05:39:58;;;;;;;30.70;17.00;;;;;6.40;101259.00;;;;9961211;29;20312;-82
2024/03/20 05:44:59;;;;;;;26.60;17.67;;;;;6.40;101266.00;;;;9963934;29;20736;-82
2024/03/20 05:50:01;;;;;;;32.07;18.60;;;;;6.40;101264.00;;;;9962077;29;20225;-81
2024/03/20 05:55:03;;;;;;;25.80;17.23;;;;;6.40;101259.00;;;;9961708;29;20719;-82
2024/03/20 06:00:04;;;;;;;25.43;16.37;;;;;6.40;101259.00;;;;9952686;29;20238;-82
2024/03/20 06:05:06;;;;;;;28.50;17.40;;;;;6.50;101268.00;;;;9984858;29;20367;-82
2024/03/20 06:10:08;;;;;;;29.97;18.17;;;;;6.60;101269.00;;;;9952681;29;20264;-82
2024/03/20 06:15:09;;;;;;;28.37;16.57;;;;;6.70;101272.00;;;;9997800;29;20374;-82
2024/03/20 06:20:10;;;;;;;30.87;19.40;;;;;6.80;101279.00;;;;9970878;29;20921;-81
2024/03/20 06:25:12;;;;;;;24.93;16.20;;;;;7.00;101286.00;;;;9963646;29;20317;-82
2024/03/20 06:30:15;;;;;;;27.80;18.90;;;;;7.20;101290.00;;;;9943334;29;20261;-79
2024/03/20 06:35:17;;;;;;;33.23;18.43;;;;;7.40;101283.00;;;;9970112;29;20244;-78
2024/03/20 06:40:18;;;;;;;27.33;17.60;;;;;7.60;101290.00;;;;9967850;29;20229;-79
2024/03/20 06:45:19;;;;;;;27.37;17.07;;;;;7.80;101298.00;;;;9963985;29;20234;-78
2024/03/20 06:50:23;;;;;;;28.40;16.90;;;;;8.00;101290.00;;;;9967456;29;20257;-78
2024/03/20 06:55:26;;;;;;;26.97;18.77;;;;;8.20;101298.00;;;;9950488;29;20245;-79
2024/03/20 07:00:28;;;;;;;30.67;18.90;;;;;8.50;101297.00;;;;9966938;29;20228;-81
2024/03/20 07:05:30;;;;;;;29.37;18.80;;;;;8.90;101302.00;;;;9974801;29;20703;-78
2024/03/20 07:10:31;;;;;;;30.67;18.30;;;;;9.20;101300.00;;;;9958128;29;21003;-77
2024/03/20 07:15:36;;;;;;;33.47;20.57;;;;;9.70;101299.00;;;;9982536;29;20253;-77
2024/03/20 07:20:38;;;;;;;28.40;19.13;;;;;10.10;101298.00;;;;9966361;29;20234;-79
2024/03/20 07:25:39;;;;;;;26.80;18.93;;;;;10.50;101294.00;;;;9962115;29;20332;-80
2024/03/20 07:30:41;;;;;;;31.00;23.13;;;;;10.80;101292.00;;;;9976858;29;20237;-79
2024/03/20 07:35:44;;;;;;;32.07;22.87;;;;;11.10;101300.00;;;;9950614;29;20245;-79
2024/03/20 07:40:51;;;;;;;33.63;24.20;;;;;11.50;101300.00;;;;9971970;29;20923;-83
2024/03/20 07:45:52;;;;;;;34.23;25.20;;;;;12.00;101303.00;;;;9965003;29;20316;-83
2024/03/20 07:50:54;;;;;;;30.03;21.93;;;;;12.20;101299.00;;;;9959782;29;20774;-83
2024/03/20 07:55:55;;;;;;;26.80;20.93;;;;;12.50;101291.00;;;;9945147;29;20230;-83
2024/03/20 08:00:57;;;;;;;27.27;19.47;;;;;12.80;101302.00;;;;9945605;29;20257;-82
2024/03/20 08:06:01;;;;;;;20.47;16.70;;;;;13.00;101306.00;;;;9981635;29;20312;-82
2024/03/20 08:11:02;;;;;;;22.43;15.27;;;;;13.50;101314.00;;;;9981681;29;20245;-84
2024/03/20 08:16:03;;;;;;;21.93;14.90;;;;;13.80;101314.00;;;;9957417;29;20241;-83
2024/03/20 08:21:05;;;;;;;18.70;14.07;;;;;14.30;101321.00;;;;9964815;29;20234;-82
2024/03/20 08:26:07;;;;;;;19.88;14.30;;;;;14.90;101320.00;;;;9967949;29;20943;-82
2024/03/20 08:31:09;;;;;;;17.80;12.45;;;;;15.30;101319.00;;;;9984443;29;20260;-83
2024/03/20 08:36:12;;;;;;;17.65;10.95;;;;;15.70;101324.00;;;;9942775;29;20221;-83
2024/03/20 08:41:13;;;;;;;14.73;11.07;;;;;16.20;101311.00;;;;9959406;29;20308;-83
2024/03/20 08:46:14;;;;;;;13.68;9.90;;;;;16.50;101310.00;;;;9952754;29;20316;-82
2024/03/20 08:51:16;;;;;;;12.52;9.57;;;;;16.80;101306.00;;;;9970733;29;20316;-82
2024/03/20 08:56:17;;;;;;;10.93;9.65;;;;;17.10;101307.00;;;;9959016;29;20735;-82
2024/03/20 09:01:18;;;;;;;10.88;8.15;;;;;17.50;101308.00;;;;9945569;29;20324;-82
2024/03/20 09:06:19;;;;;;;14.27;8.05;;;;;18.20;101314.00;;;;9960063;29;20230;-82
2024/03/20 09:11:20;;;;;;;13.70;8.30;;;;;18.50;101306.00;;;;10013660;29;20382;-81
2024/03/20 09:16:22;;;;;;;7.85;6.97;;;;;18.80;101307.00;;;;9978630;29;20229;-82
2024/03/20 09:21:23;;;;;;;10.23;7.75;;;;;19.20;101310.00;;;;9966377;29;20241;-82
2024/03/20 09:26:24;;;;;;;11.82;7.40;;;;;19.60;101311.00;;;;9965433;29;20312;-82
2024/03/20 09:31:25;;;;;;;9.32;7.05;;;;;19.50;101327.00;;;;9964941;29;20233;-82
2024/03/20 09:36:26;;;;;;;8.77;7.10;;;;;19.50;101323.00;;;;9990388;29;20251;-82
2024/03/20 09:41:28;;;;;;;11.38;8.00;;;;;19.90;101324.00;;;;9980428;29;20243;-82
2024/03/20 09:46:30;;;;;;;11.52;8.40;;;;;20.00;101326.00;;;;9953632;29;20236;-81
2024/03/20 09:51:31;;;;;;;11.63;8.10;;;;;20.00;101327.00;;;;9989402;29;20225;-82
2024/03/20 09:56:34;;;;;;;10.45;7.88;;;;;20.00;101328.00;;;;9979558;29;20298;-82
2024/03/20 10:01:35;;;;;;;14.77;7.90;;;;;20.30;101323.00;;;;9967941;29;20437;-82
2024/03/20 10:06:36;;;;;;;11.73;7.68;;;;;20.90;101319.00;;;;9979786;29;20332;-82
2024/03/20 10:11:38;;;;;;;10.88;7.80;;;;;20.70;101318.00;;;;9978502;29;20233;-82
2024/03/20 10:16:40;;;;;;;11.75;6.88;;;;;21.10;101316.00;;;;9987361;29;20242;-84
2024/03/20 10:21:44;;;;;;;10.93;6.63;;;;;21.60;101310.00;;;;9960999;29;20245;-82
2024/03/20 10:26:45;;;;;;;12.52;6.68;;;;;21.90;101299.00;;;;9942162;29;20245;-83
2024/03/20 10:31:49;;;;;;;8.75;6.60;;;;;22.70;101312.00;;;;9985248;29;21033;-83
2024/03/20 10:36:53;;;;;;;13.10;6.30;;;;;22.70;101310.00;;;;9972644;29;20320;-83
2024/03/20 10:41:55;;;;;;;8.55;5.93;;;;;23.10;101319.00;;;;9989896;29;20234;-83
2024/03/20 10:46:59;;;;;;;8.90;6.30;;;;;23.50;101309.00;;;;9953876;29;20324;-82
2024/03/20 10:52:00;;;;;;;7.25;6.35;;;;;23.60;101318.00;;;;9964834;29;20230;-83
2024/03/20 10:57:04;;;;;;;12.13;6.68;;;;;24.10;101318.00;;;;9953936;29;20312;-82
2024/03/20 11:02:08;;;;;;;6.70;6.05;;;;;24.40;101327.00;;;;9981040;29;20332;-83
2024/03/20 11:07:21;;;;;;;10.00;7.03;;;;;22.80;101330.00;;;;9988138;29;20374;-83
2024/03/20 11:12:27;;;;;;;10.82;6.97;;;;;22.40;101321.00;;;;9970416;29;20834;-83
2024/03/20 11:17:36;;;;;;;8.45;7.13;;;;;21.90;101331.00;;;;9977184;29;20927;-83
2024/03/20 11:22:37;;;;;;;10.65;6.93;;;;;22.90;101322.00;;;;9959860;29;20246;-82
2024/03/20 11:27:39;;;;;;;10.25;7.75;;;;;22.40;101320.00;;;;9981452;29;20238;-83
2024/03/20 11:32:40;;;;;;;8.65;6.88;;;;;22.10;101314.00;;;;9974969;29;20298;-83
2024/03/20 11:37:43;;;;;;;9.40;6.93;;;;;22.20;101319.00;;;;9946041;29;20903;-83
2024/03/20 11:42:49;;;;;;;9.07;6.65;;;;;22.80;101311.00;;;;9979081;29;20238;-83
2024/03/20 11:47:51;;;;;;;9.40;6.40;;;;;23.40;101306.00;;;;9961450;29;20241;-83
2024/03/20 11:52:53;;;;;;;11.90;6.65;;;;;22.90;101309.00;;;;9961085;29;20321;-84
2024/03/20 11:57:54;;;;;;;9.18;6.90;;;;;23.10;101306.00;;;;9966850;29;20910;-83
2024/03/20 12:02:55;;;;;;;10.32;7.03;;;;;23.70;101304.00;;;;9971707;29;20264;-82
2024/03/20 12:07:57;;;;;;;10.82;6.50;;;;;23.90;101295.00;;;;9974475;29;20226;-82
2024/03/20 12:12:59;;;;;;;9.20;6.90;;;;;24.20;101297.00;;;;9968751;29;20233;-83
2024/03/20 12:18:00;;;;;;;9.95;5.95;;;;;24.40;101287.00;;;;9980744;29;20236;-82
2024/03/20 12:23:06;;;;;;;8.68;6.18;;;;;24.40;101282.00;;;;10002515;29;20789;-82
2024/03/20 12:28:09;;;;;;;5.60;4.53;;;;;24.50;101273.00;;;;9953730;29;20328;-81
2024/03/20 12:33:10;;;;;;;5.93;3.90;;;;;24.50;101275.00;;;;9966279;29;20750;-82
2024/03/20 12:38:11;;;;;;;5.30;3.85;;;;;24.80;101271.00;;;;9973824;29;20308;-83
2024/03/20 12:43:13;;;;;;;4.45;3.40;;;;;25.10;101263.00;;;;9944453;29;20227;-82
2024/03/20 12:48:14;;;;;;;3.83;3.20;;;;;25.00;101269.00;;;;9972494;29;20266;-83
2024/03/20 12:53:16;;;;;;;5.22;3.47;;;;;24.70;101260.00;;;;10005298;29;20267;-82
2024/03/20 12:58:18;;;;;;;4.82;2.50;;;;;24.20;101263.00;;;;9969832;29;20256;-82
2024/03/20 13:03:20;;;;;;;5.72;2.55;;;;;23.80;101255.00;;;;9976974;29;20229;-82
2024/03/20 13:08:22;;;;;;;3.65;2.95;;;;;23.20;101256.00;;;;9962267;29;20325;-82
2024/03/20 13:13:26;;;;;;;3.92;2.50;;;;;22.80;101259.00;;;;9986480;29;20241;-82
2024/03/20 13:18:38;;;;;;;3.92;2.65;;;;;22.70;101259.00;;;;9995947;29;20252;-82
2024/03/20 13:23:39;;;;;;;4.97;2.20;;;;;22.90;101265.00;;;;9998039;29;20732;-83
2024/03/20 13:28:41;;;;;;;2.75;2.22;;;;;22.90;101253.00;;;;9980447;29;20236;-81
2024/03/20 13:33:46;;;;;;;4.72;3.17;;;;;22.90;101245.00;;;;9948940;29;20244;-81
2024/03/20 13:38:57;;;;;;;6.18;3.30;;;;;22.80;101240.00;;;;9965726;29;20637;-81
2024/03/20 13:44:01;;;;;;;6.50;3.17;;;;;23.00;101237.00;;;;9967129;29;20244;-81
2024/03/20 13:49:02;;;;;;;4.95;3.17;;;;;23.10;101241.00;;;;9963136;29;20588;-80
2024/03/20 13:54:05;;;;;;;6.80;3.78;;;;;22.70;101242.00;;;;9989654;29;20301;-81
2024/03/20 13:59:07;;;;;;;5.53;3.20;;;;;22.50;101239.00;;;;9951429;29;20802;-81
2024/03/20 14:04:11;;;;;;;10.25;2.75;;;;;22.70;101239.00;;;;9961867;29;20233;-80
2024/03/20 14:09:13;;;;;;;9.32;2.53;;;;;22.70;101238.00;;;;9965837;29;20230;-80
2024/03/20 14:14:14;;;;;;;3.88;2.50;;;;;22.80;101227.00;;;;9963030;29;20358;-80
2024/03/20 14:19:15;;;;;;;2.83;1.90;;;;;22.60;101231.00;;;;9967263;29;20232;-81
2024/03/20 14:24:18;;;;;;;5.00;2.50;;;;;22.50;101230.00;;;;9988759;29;20270;-81
2024/03/20 14:29:20;;;;;;;3.28;2.50;;;;;22.50;101217.00;;;;9970501;29;20313;-80
2024/03/20 14:34:23;;;;;;;5.05;3.00;;;;;22.30;101221.00;;;;9946374;29;20276;-81
2024/03/20 14:39:28;;;;;;;3.72;3.00;;;;;22.10;101220.00;;;;9967054;29;20312;-84
2024/03/20 14:44:29;;;;;;;10.15;3.70;;;;;21.90;101220.00;;;;9967393;29;20237;-83
2024/03/20 14:49:30;;;;;;;6.50;3.97;;;;;21.90;101231.00;;;;9993074;29;20876;-83
2024/03/20 14:54:32;;;;;;;8.32;3.55;;;;;21.80;101223.00;;;;9959890;29;20335;-83
2024/03/20 14:59:33;;;;;;;5.30;3.10;;;;;21.80;101222.00;;;;9963454;29;20236;-83
2024/03/20 15:04:34;;;;;;;4.78;3.00;;;;;21.70;101232.00;;;;9967714;29;20233;-84
2024/03/20 15:09:36;;;;;;;4.85;3.50;;;;;21.70;101223.00;;;;9978202;29;20237;-84
2024/03/20 15:14:38;;;;;;;4.97;3.20;;;;;21.50;101210.00;;;;9967786;29;20932;-84
2024/03/20 15:19:44;;;;;;;5.68;2.80;;;;;21.50;101219.00;;;;9969130;29;20238;-84
2024/03/20 15:24:45;;;;;;;4.70;2.80;;;;;21.50;101221.00;;;;9958922;29;20894;-83
2024/03/20 15:29:46;;;;;;;4.40;2.92;;;;;21.40;101225.00;;;;9971174;29;20230;-83
2024/03/20 15:34:47;;;;;;;4.95;2.90;;;;;21.30;101221.00;;;;9964534;29;20232;-84
2024/03/20 15:39:49;;;;;;;6.55;2.95;;;;;21.00;101211.00;;;;9985665;29;20688;-84
2024/03/20 15:44:50;;;;;;;6.43;2.92;;;;;20.90;101227.00;;;;10002885;29;20229;-84
2024/03/20 15:49:51;;;;;;;3.97;2.67;;;;;20.60;101222.00;;;;9995982;29;20280;-83
2024/03/20 15:54:54;;;;;;;5.88;2.47;;;;;20.60;101221.00;;;;9991015;29;20299;-82
2024/03/20 15:59:55;;;;;;;9.18;3.38;;;;;20.50;101225.00;;;;9958238;29;20222;-82
2024/03/20 16:04:57;;;;;;;5.68;3.10;;;;;20.30;101218.00;;;;9991169;29;20233;-82
2024/03/20 16:09:58;;;;;;;4.15;2.55;;;;;20.30;101213.00;;;;9986920;29;20329;-83
2024/03/20 16:14:59;;;;;;;4.47;2.42;;;;;20.00;101227.00;;;;9982413;29;20241;-82
2024/03/20 16:20:01;;;;;;;4.38;2.22;;;;;19.70;101225.00;;;;9972623;29;20924;-82
2024/03/20 16:25:04;;;;;;;5.97;2.60;;;;;19.60;101213.00;;;;9975660;29;20379;-83
2024/03/20 16:30:11;;;;;;;4.95;2.00;;;;;19.50;101217.00;;;;9980464;29;20234;-83
2024/03/20 16:35:14;;;;;;;5.97;2.22;;;;;19.30;101222.00;;;;9982167;29;20241;-82
2024/03/20 16:40:21;;;;;;;6.13;2.40;;;;;19.10;101217.00;;;;9969987;29;20315;-83
2024/03/20 16:45:22;;;;;;;5.63;2.40;;;;;18.90;101220.00;;;;9979760;29;20274;-82
2024/03/20 16:50:24;;;;;;;6.38;2.63;;;;;18.60;101211.00;;;;9966902;29;20968;-82
2024/03/20 16:55:25;;;;;;;5.57;2.70;;;;;18.20;101222.00;;;;9967662;29;20325;-83
2024/03/20 17:00:26;;;;;;;4.68;2.80;;;;;18.00;101235.00;;;;9963877;29;20865;-79
2024/03/20 17:05:27;;;;;;;4.78;2.63;;;;;17.80;101232.00;;;;9987795;29;20230;-80
2024/03/20 17:10:29;;;;;;;9.68;2.92;;;;;17.70;101247.00;;;;9982506;29;20874;-78
2024/03/20 17:15:31;;;;;;;7.07;2.95;;;;;17.60;101239.00;;;;9944256;29;20298;-79
2024/03/20 17:20:32;;;;;;;5.07;2.65;;;;;17.50;101239.00;;;;9978020;29;20230;-79
2024/03/20 17:25:34;;;;;;;4.95;2.67;;;;;17.40;101241.00;;;;9977059;29;20233;-78
2024/03/20 17:30:36;;;;;;;3.42;2.70;;;;;17.30;101240.00;;;;9972097;29;20233;-81
2024/03/20 17:35:37;;;;;;;5.97;3.03;;;;;17.10;101249.00;;;;9978800;29;20276;-79
2024/03/20 17:40:38;;;;;;;4.30;2.80;;;;;17.00;101260.00;;;;9988799;29;20237;-79
2024/03/20 17:45:40;;;;;;;3.78;2.42;;;;;16.80;101248.00;;;;9968270;29;20237;-78
2024/03/20 17:50:41;;;;;;;5.22;2.78;;;;;16.60;101256.00;;;;9963885;29;20706;-80
2024/03/20 17:55:42;;;;;;;3.40;2.83;;;;;16.20;101249.00;;;;9971648;29;20245;-78
2024/03/20 18:00:44;;;;;;;6.15;3.28;;;;;15.90;101251.00;;;;9967249;29;20257;-78
2024/03/20 18:05:45;;;;;;;8.93;4.50;;;;;15.60;101260.00;;;;9948195;29;20374;-78
2024/03/20 18:10:46;;;;;;;13.52;4.88;;;;;15.30;101271.00;;;;9979688;29;20241;-79
2024/03/20 18:15:48;;;;;;;9.10;5.68;;;;;15.10;101272.00;;;;9981740;29;20304;-79
2024/03/20 18:20:50;;;;;;;12.40;6.45;;;;;14.80;101283.00;;;;9968194;29;20285;-79
2024/03/20 18:25:51;;;;;;;13.50;6.82;;;;;14.60;101281.00;;;;9949779;29;20249;-79
2024/03/20 18:30:52;;;;;;;10.65;6.30;;;;;14.40;101278.00;;;;9966762;29;20233;-80
2024/03/20 18:35:53;;;;;;;14.30;6.47;;;;;14.30;101274.00;;;;9961537;29;20298;-79
2024/03/20 18:40:55;;;;;;;14.00;6.22;;;;;14.10;101290.00;;;;9975147;29;20867;-80
2024/03/20 18:45:56;;;;;;;6.72;4.25;;;;;13.90;101298.00;;;;9967326;29;20272;-80
2024/03/20 18:50:58;;;;;;;13.90;6.40;;;;;13.80;101308.00;;;;9964988;29;20910;-78
2024/03/20 18:56:00;;;;;;;10.48;6.75;;;;;13.60;101306.00;;;;9983670;29;20246;-78
2024/03/20 19:01:02;;;;;;;11.10;6.22;;;;;13.40;101307.00;;;;9977545;29;20806;-81
2024/03/20 19:06:05;;;;;;;8.83;6.10;;;;;13.30;101314.00;;;;9991127;29;20249;-81
2024/03/20 19:11:06;;;;;;;16.67;6.60;;;;;13.10;101323.00;;;;9959392;29;20282;-79
2024/03/20 19:16:07;;;;;;;9.60;5.83;;;;;13.00;101323.00;;;;9993545;29;20316;-79
2024/03/20 19:21:09;;;;;;;9.00;5.93;;;;;12.80;101340.00;;;;9949645;29;20230;-81
2024/03/20 19:26:11;;;;;;;11.47;7.53;;;;;12.70;101332.00;;;;9974459;29;20260;-81
2024/03/20 19:31:12;;;;;;;13.63;6.97;;;;;12.60;101344.00;;;;10003927;29;20256;-81
2024/03/20 19:36:14;;;;;;;11.13;7.50;;;;;12.50;101342.00;;;;9995046;29;20325;-82
2024/03/20 19:41:16;;;;;;;11.30;6.60;;;;;12.50;101351.00;;;;9967172;29;20230;-82
2024/03/20 19:46:17;;;;;;;15.03;8.43;;;;;12.30;101342.00;;;;9969309;29;20367;-82
2024/03/20 19:51:18;;;;;;;11.67;7.43;;;;;12.20;101369.00;;;;9954408;29;20226;-81
2024/03/20 19:56:19;;;;;;;12.70;8.13;;;;;12.10;101369.00;;;;9992334;29;20735;-81
2024/03/20 20:01:22;;;;;;;13.97;8.33;;;;;12.00;101370.00;;;;9961605;29;20285;-81
2024/03/20 20:06:25;;;;;;;14.50;7.90;;;;;11.90;101379.00;;;;9974515;29;20329;-81
2024/03/20 20:11:26;;;;;;;13.17;8.90;;;;;11.80;101392.00;;;;9949310;29;20240;-82
2024/03/20 20:16:27;;;;;;;14.13;10.03;;;;;11.70;101395.00;;;;9981433;29;20264;-81
2024/03/20 20:21:28;;;;;;;15.60;10.70;;;;;11.70;101402.00;;;;9964388;29;20233;-81
2024/03/20 20:26:30;;;;;;;13.63;10.33;;;;;11.60;101398.00;;;;9952447;29;20310;-81
2024/03/20 20:31:34;;;;;;;10.50;7.83;;;;;11.60;101403.00;;;;9970787;29;20230;-79
2024/03/20 20:36:37;;;;;;;12.47;8.57;;;;;11.50;101402.00;;;;9968528;29;20249;-78
2024/03/20 20:41:38;;;;;;;12.83;9.30;;;;;11.50;101416.00;;;;9979723;29;20234;-79
2024/03/20 20:46:39;;;;;;;14.37;10.27;;;;;11.40;101420.00;;;;9970129;29;20636;-78
2024/03/20 20:51:40;;;;;;;12.33;9.30;;;;;11.30;101418.00;;;;9972836;29;20244;-78
2024/03/20 20:56:41;;;;;;;12.37;8.83;;;;;11.20;101421.00;;;;9982395;29;20244;-80
2024/03/20 21:19:50;;;;;;;10.63;9.07;;;;;11.20;101427.00;;;;9950403;29;20577;-79
2024/03/20 21:23:02;;;;;;;14.73;10.83;;;;;11.00;101438.00;;;;9983393;29;20244;-79
2024/03/20 21:28:03;;;;;;;16.60;10.90;;;;;11.00;101434.00;;;;9980417;29;20225;-81
2024/03/20 21:33:04;;;;;;;16.83;11.87;;;;;11.00;101440.00;;;;9968022;29;20233;-78
2024/03/20 21:38:06;;;;;;;18.00;12.40;;;;;11.10;101442.00;;;;9992190;29;20253;-78
2024/03/20 21:43:07;;;;;;;17.73;13.03;;;;;11.10;101448.00;;;;9971350;29;20377;-77
2024/03/20 21:48:09;;;;;;;18.03;13.60;;;;;11.10;101451.00;;;;9971113;29;20312;-78
2024/03/20 21:53:10;;;;;;;18.90;14.67;;;;;11.10;101452.00;;;;9989619;29;20305;-77
2024/03/20 21:58:11;;;;;;;18.67;14.23;;;;;11.20;101458.00;;;;9942677;29;20294;-78
2024/03/20 22:03:12;;;;;;;20.90;14.97;;;;;11.10;101455.00;;;;9940130;29;20342;-77
2024/03/20 22:08:13;;;;;;;17.27;14.33;;;;;11.00;101463.00;;;;9960443;29;20226;-77
2024/03/20 22:13:34;;;;;;;23.33;14.00;;;;;10.90;101460.00;;;;9945033;29;20234;-76
2024/03/20 22:18:35;;;;;;;21.73;14.10;;;;;10.80;101447.00;;;;9965237;29;20863;-80
2024/03/20 22:23:37;;;;;;;17.57;13.07;;;;;10.80;101455.00;;;;9960279;29;20321;-77
2024/03/20 22:28:38;;;;;;;20.13;13.10;;;;;10.60;101452.00;;;;9963120;29;20324;-76
2024/03/20 22:33:40;;;;;;;18.53;13.13;;;;;10.40;101455.00;;;;9955255;29;20820;-77
2024/03/20 22:38:44;;;;;;;17.07;12.20;;;;;10.30;101458.00;;;;10013420;29;20869;-76
2024/03/20 22:43:55;;;;;;;19.47;13.67;;;;;10.20;101452.00;;;;9959626;29;20241;-77
2024/03/20 22:48:57;;;;;;;20.83;15.57;;;;;10.10;101450.00;;;;9962171;29;20294;-80
2024/03/20 22:53:58;;;;;;;21.13;13.80;;;;;10.00;101444.00;;;;9959730;29;20248;-79
2024/03/20 22:58:59;;;;;;;23.73;17.47;;;;;10.00;101449.00;;;;9963516;29;20244;-79
2024/03/20 23:04:01;;;;;;;19.10;15.43;;;;;9.90;101451.00;;;;9974544;29;20301;-80
2024/03/20 23:09:03;;;;;;;24.83;16.80;;;;;9.80;101455.00;;;;9968449;29;20226;-79
2024/03/20 23:14:04;;;;;;;25.87;16.60;;;;;9.80;101459.00;;;;9948623;29;20301;-79
2024/03/20 23:19:05;;;;;;;22.23;15.70;;;;;9.60;101443.00;;;;9952281;29;20756;-80
2024/03/20 23:24:06;;;;;;;24.43;18.53;;;;;9.60;101457.00;;;;9969751;29;20938;-80
2024/03/20 23:29:07;;;;;;;29.17;18.27;;;;;9.60;101461.00;;;;9982403;29;20233;-80
2024/03/20 23:34:08;;;;;;;29.57;18.27;;;;;9.50;101464.00;;;;9993845;29;20320;-79
2024/03/20 23:39:13;;;;;;;35.17;21.07;;;;;9.40;101474.00;;;;9950671;29;20857;-80
2024/03/20 23:44:14;;;;;;;36.10;23.27;;;;;9.30;101474.00;;;;9977269;29;20276;-79
2024/03/20 23:49:15;;;;;;;37.00;23.90;;;;;9.30;101487.00;;;;9944703;29;20317;-79
2024/03/20 23:54:16;;;;;;;30.07;22.03;;;;;9.40;101485.00;;;;9960216;29;20231;-80
2024/03/20 23:59:17;;;;;;;36.47;24.63;;;;;9.30;101488.00;;;;9959525;29;20742;-77
